createdAt,value
2023-05-09T00:00:57.988Z,98353.03
2023-05-09T00:06:03.086Z,98355.13
2023-05-09T00:11:06.626Z,98358.97
2023-05-09T00:16:10.462Z,98328.75
2023-05-09T00:21:15.519Z,98334.84
2023-05-09T00:26:19.133Z,98240.09
2023-05-09T00:31:23.820Z,98325.75
2023-05-09T00:36:28.597Z,98328.59
2023-05-09T00:41:31.999Z,98214.88
2023-05-09T00:46:35.524Z,98170.84
2023-05-09T00:51:42.190Z,98277.19
2023-05-09T00:56:46.203Z,98258.41
2023-05-09T01:01:49.680Z,98269.38
2023-05-09T01:07:02.708Z,98281.41
2023-05-09T01:12:14.784Z,98191.09
2023-05-09T01:17:27.089Z,98292.81
2023-05-09T01:22:36.038Z,98255.34
2023-05-09T01:27:47.347Z,98277.13
2023-05-09T01:32:54.974Z,98297.94
2023-05-09T01:37:59.868Z,98298.84
2023-05-09T01:43:08.363Z,98287.56
2023-05-09T01:48:14.603Z,98218.88
2023-05-09T01:53:18.699Z,98277.41
2023-05-09T01:58:23.598Z,98167.03
2023-05-09T02:03:28.791Z,98267.66
2023-05-09T02:08:32.565Z,98273.13
2023-05-09T02:13:38.328Z,98284.41
2023-05-09T02:18:43.161Z,98280.66
2023-05-09T02:23:46.731Z,98240.78
2023-05-09T02:28:52.010Z,98271.34
2023-05-09T02:33:57.889Z,98249.25
2023-05-09T02:39:02.196Z,98216.13
2023-05-09T02:44:06.301Z,98173.56
2023-05-09T02:49:19.565Z,98223.06
2023-05-09T02:54:30.622Z,98207.97
2023-05-09T02:59:34.316Z,98182.59
2023-05-09T03:04:41.178Z,98229.25
2023-05-09T03:09:44.703Z,98146.28
2023-05-09T03:14:48.705Z,98176.47
2023-05-09T03:19:53.602Z,98232.25
2023-05-09T03:24:57.556Z,98169.94
2023-05-09T03:30:01.111Z,98164.47
2023-05-09T03:35:06.613Z,98212.34
2023-05-09T03:40:11.208Z,98150.50
2023-05-09T03:45:25.028Z,98235.06
2023-05-09T03:50:30.332Z,98215.69
2023-05-09T03:55:35.413Z,98198.03
2023-05-09T04:00:39.318Z,98219.91
2023-05-09T04:05:50.145Z,98223.22
2023-05-09T04:11:03.429Z,98202.63
2023-05-09T04:16:07.285Z,98219.91
2023-05-09T04:21:12.849Z,98024.47
2023-05-09T04:26:18.262Z,98207.28
2023-05-09T04:31:26.468Z,98211.47
2023-05-09T04:36:31.851Z,98218.31
2023-05-09T04:41:35.755Z,98223.34
2023-05-09T04:46:39.516Z,98222.06
2023-05-09T04:51:45.229Z,98222.44
2023-05-09T04:56:50.603Z,98221.63
2023-05-09T05:01:54.839Z,98217.84
2023-05-09T05:06:59.859Z,98130.22
2023-05-09T05:12:09.134Z,98206.59
2023-05-09T05:17:13.804Z,98210.59
2023-05-09T05:22:18.664Z,97902.97
2023-05-09T05:27:23.669Z,98213.56
2023-05-09T05:32:28.103Z,98203.63
2023-05-09T05:37:33.275Z,98142.41
2023-05-09T05:42:37.623Z,98216.00
2023-05-09T05:47:41.372Z,98208.91
2023-05-09T05:52:46.850Z,97917.09
2023-05-09T05:57:52.327Z,98139.25
2023-05-09T06:02:56.569Z,98162.31
2023-05-09T06:08:11.450Z,98192.13
2023-05-09T06:13:14.990Z,98148.44
2023-05-09T06:18:23.802Z,98136.88
2023-05-09T06:23:28.592Z,98176.13
2023-05-09T06:28:32.088Z,97991.97
2023-05-09T06:33:35.471Z,98135.41
2023-05-09T06:38:40.849Z,98166.09
2023-05-09T06:43:44.302Z,98105.75
2023-05-09T06:48:48.142Z,98049.91
2023-05-09T06:53:53.263Z,98048.16
2023-05-09T06:58:56.804Z,98150.63
2023-05-09T07:04:00.305Z,98145.44
2023-05-09T07:09:05.412Z,98060.84
2023-05-09T07:14:08.771Z,98137.06
2023-05-09T07:19:12.539Z,98095.34
2023-05-09T07:24:17.428Z,98104.38
2023-05-09T07:29:20.872Z,98120.38
2023-05-09T07:34:25.383Z,98109.53
2023-05-09T07:39:30.288Z,98090.00
2023-05-09T07:44:33.635Z,98067.78
2023-05-09T07:49:37.236Z,98088.75
2023-05-09T07:54:42.071Z,98069.19
2023-05-09T07:59:45.533Z,98049.63
2023-05-09T08:04:49.346Z,98063.19
2023-05-09T08:09:54.143Z,98015.34
2023-05-09T08:14:57.551Z,98037.06
2023-05-09T08:20:01.141Z,97980.13
2023-05-09T08:25:06.661Z,98027.88
2023-05-09T08:30:11.018Z,97979.09
2023-05-09T08:35:14.802Z,97860.47
2023-05-09T08:40:20.121Z,97994.47
2023-05-09T08:45:27.596Z,97991.53
2023-05-09T08:50:31.618Z,97993.56
2023-05-09T08:55:36.555Z,97735.72
2023-05-09T09:00:42.381Z,97991.31
2023-05-09T09:05:47.849Z,97981.66
2023-05-09T09:10:53.167Z,97938.59
2023-05-09T09:16:00.233Z,97980.03
2023-05-09T09:21:08.134Z,97900.03
2023-05-09T09:26:13.343Z,97973.38
2023-05-09T09:31:24.347Z,97893.63
2023-05-09T09:36:29.072Z,97943.69
2023-05-09T09:41:35.203Z,97899.19
2023-05-09T09:46:46.715Z,97920.25
2023-05-09T09:51:54.877Z,97837.53
2023-05-09T09:56:59.785Z,97838.38
2023-05-09T10:02:07.646Z,97901.97
2023-05-09T10:07:14.819Z,97852.81
2023-05-09T10:12:23.494Z,97746.09
2023-05-09T10:17:27.750Z,97851.03
2023-05-09T10:22:33.404Z,97869.47
2023-05-09T10:27:41.234Z,97839.38
2023-05-09T10:32:50.603Z,97845.19
2023-05-09T10:37:57.498Z,97824.94
2023-05-09T10:43:02.893Z,97780.19
2023-05-09T10:48:09.002Z,97796.50
2023-05-09T10:53:14.511Z,97783.84
2023-05-09T10:58:27.506Z,97809.03
2023-05-09T11:03:54.596Z,97807.53
2023-05-09T11:08:58.105Z,97665.09
2023-05-09T11:14:03.212Z,97747.84
2023-05-09T11:19:07.059Z,97707.50
2023-05-09T11:24:17.963Z,97738.78
2023-05-09T11:29:28.109Z,97672.03
2023-05-09T11:34:31.592Z,97734.31
2023-05-09T11:39:35.100Z,97711.63
2023-05-09T11:44:41.141Z,97725.44
2023-05-09T11:49:44.702Z,97700.69
2023-05-09T11:54:48.643Z,97661.28
2023-05-09T11:59:54.221Z,97635.09
2023-05-09T12:04:57.800Z,97584.88
2023-05-09T12:10:02.840Z,97662.78
2023-05-09T12:15:10.903Z,97673.81
2023-05-09T12:20:14.902Z,97661.59
2023-05-09T12:25:18.503Z,97611.13
2023-05-09T12:30:23.737Z,97568.03
2023-05-09T12:35:27.184Z,97643.94
2023-05-09T12:40:30.607Z,97630.50
2023-05-09T12:45:35.484Z,97528.97
2023-05-09T12:50:38.909Z,97593.06
2023-05-09T12:55:42.387Z,97537.44
2023-05-09T13:00:47.503Z,97587.88
2023-05-09T13:05:58.896Z,97575.75
2023-05-09T13:11:14.804Z,97596.88
2023-05-09T13:16:20.095Z,97580.16
2023-05-09T13:21:23.479Z,97570.50
2023-05-09T13:26:28.356Z,97512.03
2023-05-09T13:31:33.095Z,97552.53
2023-05-09T13:36:36.515Z,97544.47
2023-05-09T13:41:39.919Z,97531.34
2023-05-09T13:46:44.791Z,97501.16
2023-05-09T13:51:48.665Z,97465.47
2023-05-09T13:56:52.882Z,97376.50
2023-05-09T14:02:00.018Z,97373.88
2023-05-09T14:07:04.893Z,97534.50
2023-05-09T14:12:10.115Z,97493.78
2023-05-09T14:17:15.060Z,97461.19
2023-05-09T14:22:18.492Z,97479.69
2023-05-09T14:27:21.945Z,97474.75
2023-05-09T14:32:27.205Z,97456.63
2023-05-09T14:37:30.614Z,97451.47
2023-05-09T14:42:34.076Z,97414.81
2023-05-09T14:47:38.978Z,97456.59
2023-05-09T14:52:44.081Z,97461.25
2023-05-09T14:57:47.623Z,97357.56
2023-05-09T15:02:52.400Z,97408.88
2023-05-09T15:07:55.870Z,97276.63
2023-05-09T15:12:59.287Z,97370.25
2023-05-09T15:18:04.122Z,97419.41
2023-05-09T15:23:08.542Z,97365.56
2023-05-09T15:28:12.173Z,97371.06
2023-05-09T15:33:17.655Z,97380.28
2023-05-09T15:38:21.154Z,97404.94
2023-05-09T15:43:24.651Z,97396.22
2023-05-09T15:48:31.826Z,97380.59
2023-05-09T15:53:35.368Z,97361.09
2023-05-09T15:58:39.111Z,97339.78
2023-05-09T16:03:44.117Z,97393.22
2023-05-09T16:08:47.688Z,97285.69
2023-05-09T16:13:51.208Z,97332.25
2023-05-09T16:18:56.130Z,97264.63
2023-05-09T16:24:00.191Z,97319.28
2023-05-09T16:29:03.698Z,97367.66
2023-05-09T16:34:08.597Z,97355.88
2023-05-09T16:39:11.986Z,97311.94
2023-05-09T16:44:15.541Z,97301.13
2023-05-09T16:49:20.399Z,97344.09
2023-05-09T16:54:23.720Z,97350.59
2023-05-09T16:59:27.249Z,97350.09
2023-05-09T17:04:32.093Z,97312.81
2023-05-09T17:09:43.660Z,97331.88
2023-05-09T17:14:48.069Z,97289.81
2023-05-09T17:19:55.870Z,97359.38
2023-05-09T17:24:59.518Z,97366.56
2023-05-09T17:30:04.091Z,97334.25
2023-05-09T17:35:10.218Z,97362.13
2023-05-09T17:40:15.709Z,97398.25
2023-05-09T17:45:20.678Z,97338.63
2023-05-09T17:50:25.672Z,97392.75
2023-05-09T17:55:29.160Z,97385.31
2023-05-09T18:00:32.635Z,97360.00
2023-05-09T18:05:37.452Z,97408.22
2023-05-09T18:10:41.478Z,97389.44
2023-05-09T18:15:45.301Z,97305.41
2023-05-09T18:20:51.458Z,97385.09
2023-05-09T18:25:56.044Z,97408.75
2023-05-09T18:31:01.400Z,97379.09
2023-05-09T18:36:07.104Z,97408.22
2023-05-09T18:41:11.983Z,97424.03
2023-05-09T18:46:18.112Z,97177.81
2023-05-09T18:51:23.148Z,97397.06
2023-05-09T18:56:26.593Z,97429.16
2023-05-09T19:01:30.262Z,97390.53
2023-05-09T19:06:35.183Z,97390.81
2023-05-09T19:11:38.676Z,97337.22
2023-05-09T19:16:42.371Z,97435.16
2023-05-09T19:21:49.041Z,97435.72
2023-05-09T19:26:53.476Z,97411.66
2023-05-09T19:31:58.267Z,97430.69
2023-05-09T19:37:03.107Z,97449.22
2023-05-09T19:42:06.539Z,97447.56
2023-05-09T19:47:10.141Z,97416.94
2023-05-09T19:52:15.018Z,97366.81
2023-05-09T19:57:18.726Z,97428.09
2023-05-09T20:02:22.285Z,97422.38
2023-05-09T20:07:27.221Z,97425.69
2023-05-09T20:12:30.761Z,97354.78
2023-05-09T20:17:34.281Z,97456.16
2023-05-09T20:22:40.788Z,97371.69
2023-05-09T20:27:57.475Z,97445.28
2023-05-09T20:33:01.296Z,97443.38
2023-05-09T20:38:06.280Z,97447.47
2023-05-09T20:43:09.811Z,97397.81
2023-05-09T20:48:13.738Z,97449.09
2023-05-09T20:53:22.421Z,97397.09
2023-05-09T20:58:26.153Z,97412.56
2023-05-09T21:03:29.787Z,97406.03
2023-05-09T21:08:34.708Z,97384.22
2023-05-09T21:13:38.103Z,97355.84
2023-05-09T21:19:07.155Z,97343.94
2023-05-09T21:24:12.011Z,97424.53
2023-05-09T21:29:15.589Z,97444.56
2023-05-09T21:34:21.217Z,97407.81
2023-05-09T21:40:29.184Z,97419.88
2023-05-09T21:45:46.544Z,97392.69
2023-05-09T21:50:49.974Z,97425.91
2023-05-09T21:55:54.801Z,97316.25
2023-05-09T22:00:58.433Z,97420.41
2023-05-09T22:06:01.804Z,97371.28
2023-05-09T22:11:07.738Z,97425.28
2023-05-09T22:16:11.728Z,97390.81
2023-05-09T22:21:15.218Z,97371.72
2023-05-09T22:26:20.175Z,97388.00
2023-05-09T22:31:23.776Z,97217.78
2023-05-09T22:36:27.404Z,97137.75
2023-05-09T22:41:32.334Z,97391.66
2023-05-09T22:46:35.838Z,97426.53
2023-05-09T22:51:39.334Z,97387.44
2023-05-09T22:56:44.396Z,97463.59
2023-05-09T23:01:47.860Z,97391.91
2023-05-09T23:06:51.267Z,97401.72
2023-05-09T23:11:56.102Z,97434.13
2023-05-09T23:16:59.559Z,97401.34
2023-05-09T23:22:03.037Z,97423.78
2023-05-09T23:27:07.870Z,97434.25
2023-05-09T23:32:11.250Z,97440.06
2023-05-09T23:37:14.682Z,97434.41
2023-05-09T23:42:19.508Z,97358.53
2023-05-09T23:47:22.987Z,97454.22
2023-05-09T23:52:26.564Z,97457.22
2023-05-09T23:57:33.497Z,97201.16
